sensor_id;sensor_type;location;lat;lon;timestamp;temperature;humidity
46091;DHT22;31826;53.572;10.170;2023-04-19T00:01:35;5.90;99.90
46091;DHT22;31826;53.572;10.170;2023-04-19T00:04:01;5.90;99.90
46091;DHT22;31826;53.572;10.170;2023-04-19T00:06:27;5.90;99.90
46091;DHT22;31826;53.572;10.170;2023-04-19T00:08:55;5.80;99.90
46091;DHT22;31826;53.572;10.170;2023-04-19T00:11:20;5.80;99.90
46091;DHT22;31826;53.572;10.170;2023-04-19T00:13:46;5.80;99.90
46091;DHT22;31826;53.572;10.170;2023-04-19T00:16:13;5.80;99.90
46091;DHT22;31826;53.572;10.170;2023-04-19T00:18:39;5.80;99.90
46091;DHT22;31826;53.572;10.170;2023-04-19T00:21:05;5.70;99.90
46091;DHT22;31826;53.572;10.170;2023-04-19T00:23:30;5.70;99.90
46091;DHT22;31826;53.572;10.170;2023-04-19T00:25:56;5.70;99.90
46091;DHT22;31826;53.572;10.170;2023-04-19T00:28:23;5.60;99.90
46091;DHT22;31826;53.572;10.170;2023-04-19T00:30:49;5.60;99.90
46091;DHT22;31826;53.572;10.170;2023-04-19T00:33:15;5.60;99.90
46091;DHT22;31826;53.572;10.170;2023-04-19T00:35:41;5.50;99.90
46091;DHT22;31826;53.572;10.170;2023-04-19T00:38:07;5.50;99.90
46091;DHT22;31826;53.572;10.170;2023-04-19T00:40:33;5.50;99.90
46091;DHT22;31826;53.572;10.170;2023-04-19T00:42:58;5.50;99.90
46091;DHT22;31826;53.572;10.170;2023-04-19T00:45:24;5.60;99.90
46091;DHT22;31826;53.572;10.170;2023-04-19T00:47:51;5.50;99.90
46091;DHT22;31826;53.572;10.170;2023-04-19T00:50:17;5.50;99.90
46091;DHT22;31826;53.572;10.170;2023-04-19T00:52:42;5.50;99.90
46091;DHT22;31826;53.572;10.170;2023-04-19T00:55:09;5.40;99.90
46091;DHT22;31826;53.572;10.170;2023-04-19T00:57:36;5.40;99.90
46091;DHT22;31826;53.572;10.170;2023-04-19T01:00:03;5.40;99.90
46091;DHT22;31826;53.572;10.170;2023-04-19T01:02:33;5.40;99.90
46091;DHT22;31826;53.572;10.170;2023-04-19T01:04:59;5.40;99.90
46091;DHT22;31826;53.572;10.170;2023-04-19T01:07:24;5.40;99.90
46091;DHT22;31826;53.572;10.170;2023-04-19T01:09:50;5.30;99.90
46091;DHT22;31826;53.572;10.170;2023-04-19T01:12:16;5.30;99.90
46091;DHT22;31826;53.572;10.170;2023-04-19T01:14:42;5.40;99.90
46091;DHT22;31826;53.572;10.170;2023-04-19T01:17:08;5.30;99.90
46091;DHT22;31826;53.572;10.170;2023-04-19T01:19:35;5.40;99.90
46091;DHT22;31826;53.572;10.170;2023-04-19T01:22:01;5.30;99.90
46091;DHT22;31826;53.572;10.170;2023-04-19T01:24:29;5.30;99.90
46091;DHT22;31826;53.572;10.170;2023-04-19T01:26:54;5.40;99.90
46091;DHT22;31826;53.572;10.170;2023-04-19T01:29:20;5.40;99.90
46091;DHT22;31826;53.572;10.170;2023-04-19T01:31:47;5.30;99.90
46091;DHT22;31826;53.572;10.170;2023-04-19T01:34:18;5.30;99.90
46091;DHT22;31826;53.572;10.170;2023-04-19T01:36:44;5.30;99.90
46091;DHT22;31826;53.572;10.170;2023-04-19T01:39:09;5.30;99.90
46091;DHT22;31826;53.572;10.170;2023-04-19T01:41:35;5.30;99.90
46091;DHT22;31826;53.572;10.170;2023-04-19T01:44:01;5.30;99.90
46091;DHT22;31826;53.572;10.170;2023-04-19T01:46:26;5.20;99.90
46091;DHT22;31826;53.572;10.170;2023-04-19T01:48:52;5.20;99.90
46091;DHT22;31826;53.572;10.170;2023-04-19T01:51:18;5.30;99.90
46091;DHT22;31826;53.572;10.170;2023-04-19T01:53:46;5.20;99.90
46091;DHT22;31826;53.572;10.170;2023-04-19T01:56:17;5.30;99.90
46091;DHT22;31826;53.572;10.170;2023-04-19T01:58:42;5.30;99.90
46091;DHT22;31826;53.572;10.170;2023-04-19T02:01:08;5.30;99.90
46091;DHT22;31826;53.572;10.170;2023-04-19T02:03:37;5.20;99.90
46091;DHT22;31826;53.572;10.170;2023-04-19T02:06:03;5.20;99.90
46091;DHT22;31826;53.572;10.170;2023-04-19T02:08:29;5.20;99.90
46091;DHT22;31826;53.572;10.170;2023-04-19T02:10:54;5.20;99.90
46091;DHT22;31826;53.572;10.170;2023-04-19T02:13:20;5.20;99.90
46091;DHT22;31826;53.572;10.170;2023-04-19T02:15:46;5.20;99.90
46091;DHT22;31826;53.572;10.170;2023-04-19T02:18:12;5.10;99.90
46091;DHT22;31826;53.572;10.170;2023-04-19T02:20:38;5.10;99.90
46091;DHT22;31826;53.572;10.170;2023-04-19T02:23:04;5.10;99.90
46091;DHT22;31826;53.572;10.170;2023-04-19T02:25:29;5.10;99.90
46091;DHT22;31826;53.572;10.170;2023-04-19T02:27:55;5.10;99.90
46091;DHT22;31826;53.572;10.170;2023-04-19T02:30:21;5.10;99.90
46091;DHT22;31826;53.572;10.170;2023-04-19T02:32:50;5.10;99.90
46091;DHT22;31826;53.572;10.170;2023-04-19T02:35:15;5.00;99.90
46091;DHT22;31826;53.572;10.170;2023-04-19T02:37:41;5.00;99.90
46091;DHT22;31826;53.572;10.170;2023-04-19T02:40:07;4.90;99.90
46091;DHT22;31826;53.572;10.170;2023-04-19T02:42:33;5.00;99.90
46091;DHT22;31826;53.572;10.170;2023-04-19T02:44:59;5.00;99.90
46091;DHT22;31826;53.572;10.170;2023-04-19T02:47:24;4.90;99.90
46091;DHT22;31826;53.572;10.170;2023-04-19T02:49:50;4.90;99.90
46091;DHT22;31826;53.572;10.170;2023-04-19T02:52:16;4.90;99.90
46091;DHT22;31826;53.572;10.170;2023-04-19T02:54:41;4.90;99.90
46091;DHT22;31826;53.572;10.170;2023-04-19T02:57:07;4.80;99.90
46091;DHT22;31826;53.572;10.170;2023-04-19T02:59:33;4.80;99.90
46091;DHT22;31826;53.572;10.170;2023-04-19T03:01:58;4.80;99.90
46091;DHT22;31826;53.572;10.170;2023-04-19T03:04:24;4.70;99.90
46091;DHT22;31826;53.572;10.170;2023-04-19T03:06:51;4.80;99.90
46091;DHT22;31826;53.572;10.170;2023-04-19T03:09:17;4.80;99.90
46091;DHT22;31826;53.572;10.170;2023-04-19T03:11:42;4.80;99.90
46091;DHT22;31826;53.572;10.170;2023-04-19T03:14:08;4.70;99.90
46091;DHT22;31826;53.572;10.170;2023-04-19T03:16:34;4.80;99.90
46091;DHT22;31826;53.572;10.170;2023-04-19T03:18:59;4.70;99.90
46091;DHT22;31826;53.572;10.170;2023-04-19T03:21:25;4.80;99.90
46091;DHT22;31826;53.572;10.170;2023-04-19T03:23:54;4.70;99.90
46091;DHT22;31826;53.572;10.170;2023-04-19T03:26:20;4.70;99.90
46091;DHT22;31826;53.572;10.170;2023-04-19T03:28:45;4.70;99.90
46091;DHT22;31826;53.572;10.170;2023-04-19T03:31:11;4.70;99.90
46091;DHT22;31826;53.572;10.170;2023-04-19T03:33:37;4.70;99.90
46091;DHT22;31826;53.572;10.170;2023-04-19T03:36:03;4.60;99.90
46091;DHT22;31826;53.572;10.170;2023-04-19T03:38:28;4.60;99.90
46091;DHT22;31826;53.572;10.170;2023-04-19T03:40:55;4.60;99.90
46091;DHT22;31826;53.572;10.170;2023-04-19T03:43:22;4.60;99.90
46091;DHT22;31826;53.572;10.170;2023-04-19T03:45:49;4.60;99.90
46091;DHT22;31826;53.572;10.170;2023-04-19T03:48:15;4.50;99.90
46091;DHT22;31826;53.572;10.170;2023-04-19T03:50:40;4.50;99.90
46091;DHT22;31826;53.572;10.170;2023-04-19T03:53:06;4.50;99.90
46091;DHT22;31826;53.572;10.170;2023-04-19T03:55:32;4.50;99.90
46091;DHT22;31826;53.572;10.170;2023-04-19T03:57:58;4.50;99.90
46091;DHT22;31826;53.572;10.170;2023-04-19T04:00:23;4.50;99.90
46091;DHT22;31826;53.572;10.170;2023-04-19T04:02:49;4.50;99.90
46091;DHT22;31826;53.572;10.170;2023-04-19T04:05:15;4.50;99.90
46091;DHT22;31826;53.572;10.170;2023-04-19T04:07:40;4.50;99.90
46091;DHT22;31826;53.572;10.170;2023-04-19T04:10:07;4.60;99.90
46091;DHT22;31826;53.572;10.170;2023-04-19T04:12:33;4.60;99.90
46091;DHT22;31826;53.572;10.170;2023-04-19T04:14:58;4.70;99.90
46091;DHT22;31826;53.572;10.170;2023-04-19T04:17:24;4.60;99.90
46091;DHT22;31826;53.572;10.170;2023-04-19T04:19:50;4.70;99.90
46091;DHT22;31826;53.572;10.170;2023-04-19T04:22:16;4.70;99.90
46091;DHT22;31826;53.572;10.170;2023-04-19T04:24:42;4.70;99.90
46091;DHT22;31826;53.572;10.170;2023-04-19T04:27:09;4.70;99.90
46091;DHT22;31826;53.572;10.170;2023-04-19T04:29:38;4.70;99.90
46091;DHT22;31826;53.572;10.170;2023-04-19T04:32:06;4.80;99.90
46091;DHT22;31826;53.572;10.170;2023-04-19T04:34:33;4.80;99.90
46091;DHT22;31826;53.572;10.170;2023-04-19T04:37:00;4.90;99.90
46091;DHT22;31826;53.572;10.170;2023-04-19T04:39:27;4.90;99.90
46091;DHT22;31826;53.572;10.170;2023-04-19T04:41:53;4.90;99.90
46091;DHT22;31826;53.572;10.170;2023-04-19T04:44:18;5.00;99.90
46091;DHT22;31826;53.572;10.170;2023-04-19T04:46:47;5.00;99.90
46091;DHT22;31826;53.572;10.170;2023-04-19T04:49:13;5.00;99.90
46091;DHT22;31826;53.572;10.170;2023-04-19T04:51:38;5.10;99.90
46091;DHT22;31826;53.572;10.170;2023-04-19T04:54:04;5.20;99.90
46091;DHT22;31826;53.572;10.170;2023-04-19T04:56:30;5.20;99.90
46091;DHT22;31826;53.572;10.170;2023-04-19T04:58:55;5.20;99.90
46091;DHT22;31826;53.572;10.170;2023-04-19T05:01:22;5.30;99.90
46091;DHT22;31826;53.572;10.170;2023-04-19T05:03:48;5.50;99.90
46091;DHT22;31826;53.572;10.170;2023-04-19T05:06:14;5.50;99.90
46091;DHT22;31826;53.572;10.170;2023-04-19T05:08:40;5.70;99.90
46091;DHT22;31826;53.572;10.170;2023-04-19T05:11:06;5.70;99.90
46091;DHT22;31826;53.572;10.170;2023-04-19T05:13:31;5.80;99.90
46091;DHT22;31826;53.572;10.170;2023-04-19T05:15:57;5.80;99.90
46091;DHT22;31826;53.572;10.170;2023-04-19T05:18:23;5.80;99.90
46091;DHT22;31826;53.572;10.170;2023-04-19T05:20:49;5.90;99.90
46091;DHT22;31826;53.572;10.170;2023-04-19T05:23:14;6.00;99.90
46091;DHT22;31826;53.572;10.170;2023-04-19T05:25:41;6.00;99.90
46091;DHT22;31826;53.572;10.170;2023-04-19T05:28:06;6.10;99.90
46091;DHT22;31826;53.572;10.170;2023-04-19T05:30:32;6.10;99.90
46091;DHT22;31826;53.572;10.170;2023-04-19T05:32:58;6.20;99.90
46091;DHT22;31826;53.572;10.170;2023-04-19T05:35:24;6.20;99.90
46091;DHT22;31826;53.572;10.170;2023-04-19T05:37:50;6.30;99.90
46091;DHT22;31826;53.572;10.170;2023-04-19T05:40:15;6.40;99.90
46091;DHT22;31826;53.572;10.170;2023-04-19T05:42:41;6.40;99.90
46091;DHT22;31826;53.572;10.170;2023-04-19T05:45:08;6.50;99.90
46091;DHT22;31826;53.572;10.170;2023-04-19T05:47:34;6.60;99.90
46091;DHT22;31826;53.572;10.170;2023-04-19T05:49:59;6.70;99.90
46091;DHT22;31826;53.572;10.170;2023-04-19T05:52:25;6.80;99.90
46091;DHT22;31826;53.572;10.170;2023-04-19T05:54:51;6.80;99.90
46091;DHT22;31826;53.572;10.170;2023-04-19T05:57:17;6.80;99.90
46091;DHT22;31826;53.572;10.170;2023-04-19T05:59:42;6.90;99.90
46091;DHT22;31826;53.572;10.170;2023-04-19T06:02:08;7.10;99.90
46091;DHT22;31826;53.572;10.170;2023-04-19T06:04:34;7.10;99.90
46091;DHT22;31826;53.572;10.170;2023-04-19T06:07:00;7.20;99.90
46091;DHT22;31826;53.572;10.170;2023-04-19T06:09:26;7.30;99.90
46091;DHT22;31826;53.572;10.170;2023-04-19T06:11:52;7.40;99.90
46091;DHT22;31826;53.572;10.170;2023-04-19T06:14:19;7.40;99.90
46091;DHT22;31826;53.572;10.170;2023-04-19T06:16:45;7.50;99.90
46091;DHT22;31826;53.572;10.170;2023-04-19T06:19:11;7.60;99.90
46091;DHT22;31826;53.572;10.170;2023-04-19T06:21:36;7.70;99.90
46091;DHT22;31826;53.572;10.170;2023-04-19T06:24:02;7.80;99.90
46091;DHT22;31826;53.572;10.170;2023-04-19T06:26:28;7.90;99.90
46091;DHT22;31826;53.572;10.170;2023-04-19T06:28:54;7.90;99.90
46091;DHT22;31826;53.572;10.170;2023-04-19T06:31:19;8.10;99.90
46091;DHT22;31826;53.572;10.170;2023-04-19T06:33:45;8.10;99.90
46091;DHT22;31826;53.572;10.170;2023-04-19T06:36:11;8.20;99.90
46091;DHT22;31826;53.572;10.170;2023-04-19T06:38:37;8.30;99.90
46091;DHT22;31826;53.572;10.170;2023-04-19T06:41:03;8.30;99.90
46091;DHT22;31826;53.572;10.170;2023-04-19T06:43:29;8.50;99.90
46091;DHT22;31826;53.572;10.170;2023-04-19T06:46:02;8.40;99.90
46091;DHT22;31826;53.572;10.170;2023-04-19T06:48:29;8.60;99.90
46091;DHT22;31826;53.572;10.170;2023-04-19T06:50:55;8.80;99.90
46091;DHT22;31826;53.572;10.170;2023-04-19T06:53:21;8.80;99.90
46091;DHT22;31826;53.572;10.170;2023-04-19T06:55:47;8.90;99.90
46091;DHT22;31826;53.572;10.170;2023-04-19T06:58:13;8.90;99.90
46091;DHT22;31826;53.572;10.170;2023-04-19T07:00:38;9.10;99.90
46091;DHT22;31826;53.572;10.170;2023-04-19T07:03:04;9.10;99.90
46091;DHT22;31826;53.572;10.170;2023-04-19T07:05:30;9.20;99.90
46091;DHT22;31826;53.572;10.170;2023-04-19T07:07:57;9.20;99.60
46091;DHT22;31826;53.572;10.170;2023-04-19T07:10:23;9.20;99.60
46091;DHT22;31826;53.572;10.170;2023-04-19T07:12:49;9.30;99.50
46091;DHT22;31826;53.572;10.170;2023-04-19T07:15:15;9.40;99.40
46091;DHT22;31826;53.572;10.170;2023-04-19T07:17:41;9.50;99.60
46091;DHT22;31826;53.572;10.170;2023-04-19T07:20:07;9.60;99.40
46091;DHT22;31826;53.572;10.170;2023-04-19T07:22:34;9.70;99.60
46091;DHT22;31826;53.572;10.170;2023-04-19T07:25:00;9.80;98.90
46091;DHT22;31826;53.572;10.170;2023-04-19T07:27:25;10.00;99.00
46091;DHT22;31826;53.572;10.170;2023-04-19T07:29:51;10.20;99.60
46091;DHT22;31826;53.572;10.170;2023-04-19T07:32:18;10.30;98.50
46091;DHT22;31826;53.572;10.170;2023-04-19T07:34:43;10.40;98.40
46091;DHT22;31826;53.572;10.170;2023-04-19T07:37:10;10.50;98.10
46091;DHT22;31826;53.572;10.170;2023-04-19T07:39:37;10.60;97.80
46091;DHT22;31826;53.572;10.170;2023-04-19T07:42:02;10.80;97.80
46091;DHT22;31826;53.572;10.170;2023-04-19T07:44:28;10.90;97.20
46091;DHT22;31826;53.572;10.170;2023-04-19T07:46:54;11.00;98.00
46091;DHT22;31826;53.572;10.170;2023-04-19T07:49:19;11.10;97.10
46091;DHT22;31826;53.572;10.170;2023-04-19T07:51:45;11.10;96.30
46091;DHT22;31826;53.572;10.170;2023-04-19T07:54:11;11.10;96.30
46091;DHT22;31826;53.572;10.170;2023-04-19T07:56:37;11.40;96.90
46091;DHT22;31826;53.572;10.170;2023-04-19T07:59:02;11.40;96.20
46091;DHT22;31826;53.572;10.170;2023-04-19T08:01:28;11.60;97.00
46091;DHT22;31826;53.572;10.170;2023-04-19T08:03:54;11.80;96.30
46091;DHT22;31826;53.572;10.170;2023-04-19T08:06:20;12.00;96.30
46091;DHT22;31826;53.572;10.170;2023-04-19T08:08:46;12.00;95.00
46091;DHT22;31826;53.572;10.170;2023-04-19T08:11:12;11.90;94.50
46091;DHT22;31826;53.572;10.170;2023-04-19T08:13:38;12.10;95.50
46091;DHT22;31826;53.572;10.170;2023-04-19T08:16:04;12.20;95.50
46091;DHT22;31826;53.572;10.170;2023-04-19T08:18:30;12.40;95.10
46091;DHT22;31826;53.572;10.170;2023-04-19T08:20:56;12.50;94.80
46091;DHT22;31826;53.572;10.170;2023-04-19T08:23:23;12.60;94.20
46091;DHT22;31826;53.572;10.170;2023-04-19T08:25:48;12.70;94.60
46091;DHT22;31826;53.572;10.170;2023-04-19T08:28:15;12.70;93.80
46091;DHT22;31826;53.572;10.170;2023-04-19T08:30:41;12.70;93.70
46091;DHT22;31826;53.572;10.170;2023-04-19T08:33:07;12.70;93.80
46091;DHT22;31826;53.572;10.170;2023-04-19T08:35:34;12.70;93.70
46091;DHT22;31826;53.572;10.170;2023-04-19T08:38:00;13.00;94.00
46091;DHT22;31826;53.572;10.170;2023-04-19T08:40:28;13.30;94.80
46091;DHT22;31826;53.572;10.170;2023-04-19T08:42:56;13.40;92.90
46091;DHT22;31826;53.572;10.170;2023-04-19T08:45:26;13.50;92.50
46091;DHT22;31826;53.572;10.170;2023-04-19T08:47:53;13.70;92.00
46091;DHT22;31826;53.572;10.170;2023-04-19T08:50:20;13.80;92.50
46091;DHT22;31826;53.572;10.170;2023-04-19T08:52:46;14.00;92.90
46091;DHT22;31826;53.572;10.170;2023-04-19T08:55:12;14.10;91.70
46091;DHT22;31826;53.572;10.170;2023-04-19T08:57:39;14.20;91.50
46091;DHT22;31826;53.572;10.170;2023-04-19T09:00:06;14.30;90.70
46091;DHT22;31826;53.572;10.170;2023-04-19T09:02:44;14.20;90.90
46091;DHT22;31826;53.572;10.170;2023-04-19T09:05:13;14.20;90.40
46091;DHT22;31826;53.572;10.170;2023-04-19T09:07:38;14.20;87.80
46091;DHT22;31826;53.572;10.170;2023-04-19T09:10:09;14.30;88.20
46091;DHT22;31826;53.572;10.170;2023-04-19T09:12:37;14.10;87.80
46091;DHT22;31826;53.572;10.170;2023-04-19T09:15:04;14.20;89.70
46091;DHT22;31826;53.572;10.170;2023-04-19T09:17:33;14.40;88.90
46091;DHT22;31826;53.572;10.170;2023-04-19T09:19:59;14.70;89.10
46091;DHT22;31826;53.572;10.170;2023-04-19T09:22:25;14.90;87.70
46091;DHT22;31826;53.572;10.170;2023-04-19T09:24:51;15.10;86.70
46091;DHT22;31826;53.572;10.170;2023-04-19T09:29:57;14.80;84.60
46091;DHT22;31826;53.572;10.170;2023-04-19T09:32:24;15.00;84.80
46091;DHT22;31826;53.572;10.170;2023-04-19T09:34:54;15.20;85.30
46091;DHT22;31826;53.572;10.170;2023-04-19T09:37:21;15.00;77.80
46091;DHT22;31826;53.572;10.170;2023-04-19T09:39:47;15.00;80.10
46091;DHT22;31826;53.572;10.170;2023-04-19T09:42:12;15.00;80.20
46091;DHT22;31826;53.572;10.170;2023-04-19T09:44:38;15.00;80.20
46091;DHT22;31826;53.572;10.170;2023-04-19T09:47:26;15.10;80.20
46091;DHT22;31826;53.572;10.170;2023-04-19T09:50:10;15.20;79.00
46091;DHT22;31826;53.572;10.170;2023-04-19T09:52:36;15.10;78.60
46091;DHT22;31826;53.572;10.170;2023-04-19T09:55:04;15.30;76.50
46091;DHT22;31826;53.572;10.170;2023-04-19T09:57:32;15.20;75.70
46091;DHT22;31826;53.572;10.170;2023-04-19T09:59:59;15.20;77.70
46091;DHT22;31826;53.572;10.170;2023-04-19T10:02:29;15.20;75.90
46091;DHT22;31826;53.572;10.170;2023-04-19T10:04:57;15.40;74.30
46091;DHT22;31826;53.572;10.170;2023-04-19T10:07:23;15.40;74.30
46091;DHT22;31826;53.572;10.170;2023-04-19T10:09:50;15.60;74.20
46091;DHT22;31826;53.572;10.170;2023-04-19T10:12:18;15.70;72.80
46091;DHT22;31826;53.572;10.170;2023-04-19T10:14:45;15.60;74.50
46091;DHT22;31826;53.572;10.170;2023-04-19T10:17:11;15.60;74.80
46091;DHT22;31826;53.572;10.170;2023-04-19T10:19:37;15.90;73.30
46091;DHT22;31826;53.572;10.170;2023-04-19T10:22:06;16.20;73.40
46091;DHT22;31826;53.572;10.170;2023-04-19T10:24:32;16.20;72.50
46091;DHT22;31826;53.572;10.170;2023-04-19T10:27:12;16.20;75.30
46091;DHT22;31826;53.572;10.170;2023-04-19T10:32:16;16.30;71.60
46091;DHT22;31826;53.572;10.170;2023-04-19T10:34:42;16.10;64.70
46091;DHT22;31826;53.572;10.170;2023-04-19T10:37:12;15.90;62.70
46091;DHT22;31826;53.572;10.170;2023-04-19T10:39:39;15.60;64.70
46091;DHT22;31826;53.572;10.170;2023-04-19T10:42:06;15.30;65.00
46091;DHT22;31826;53.572;10.170;2023-04-19T10:44:31;15.50;65.70
46091;DHT22;31826;53.572;10.170;2023-04-19T10:47:00;15.50;64.20
46091;DHT22;31826;53.572;10.170;2023-04-19T10:49:29;15.60;65.60
46091;DHT22;31826;53.572;10.170;2023-04-19T10:51:55;15.90;64.90
46091;DHT22;31826;53.572;10.170;2023-04-19T10:54:32;15.80;61.10
46091;DHT22;31826;53.572;10.170;2023-04-19T10:57:02;15.90;61.50
46091;DHT22;31826;53.572;10.170;2023-04-19T10:59:33;15.50;58.60
46091;DHT22;31826;53.572;10.170;2023-04-19T11:02:01;15.60;62.00
46091;DHT22;31826;53.572;10.170;2023-04-19T11:07:05;16.10;62.10
46091;DHT22;31826;53.572;10.170;2023-04-19T11:09:51;16.10;58.50
46091;DHT22;31826;53.572;10.170;2023-04-19T11:12:18;15.80;61.30
46091;DHT22;31826;53.572;10.170;2023-04-19T11:14:51;16.00;59.70
46091;DHT22;31826;53.572;10.170;2023-04-19T11:17:30;16.00;61.20
46091;DHT22;31826;53.572;10.170;2023-04-19T11:20:00;16.00;57.90
46091;DHT22;31826;53.572;10.170;2023-04-19T11:22:32;15.70;57.80
46091;DHT22;31826;53.572;10.170;2023-04-19T11:25:11;15.80;58.60
46091;DHT22;31826;53.572;10.170;2023-04-19T11:27:39;15.80;59.70
46091;DHT22;31826;53.572;10.170;2023-04-19T11:30:06;15.70;59.90
46091;DHT22;31826;53.572;10.170;2023-04-19T11:32:34;15.80;59.80
46091;DHT22;31826;53.572;10.170;2023-04-19T11:35:05;16.20;60.90
46091;DHT22;31826;53.572;10.170;2023-04-19T11:37:35;16.30;58.80
46091;DHT22;31826;53.572;10.170;2023-04-19T11:40:02;16.10;59.10
46091;DHT22;31826;53.572;10.170;2023-04-19T11:42:29;16.10;58.90
46091;DHT22;31826;53.572;10.170;2023-04-19T11:44:55;16.30;61.30
46091;DHT22;31826;53.572;10.170;2023-04-19T11:47:22;16.50;58.80
46091;DHT22;31826;53.572;10.170;2023-04-19T11:49:48;16.40;59.70
46091;DHT22;31826;53.572;10.170;2023-04-19T11:52:22;16.20;58.20
46091;DHT22;31826;53.572;10.170;2023-04-19T11:54:52;16.30;59.50
46091;DHT22;31826;53.572;10.170;2023-04-19T11:57:30;16.70;61.60
46091;DHT22;31826;53.572;10.170;2023-04-19T12:00:06;16.90;59.90
46091;DHT22;31826;53.572;10.170;2023-04-19T12:02:43;16.90;58.40
46091;DHT22;31826;53.572;10.170;2023-04-19T12:05:11;17.00;60.50
46091;DHT22;31826;53.572;10.170;2023-04-19T12:07:55;17.20;59.90
46091;DHT22;31826;53.572;10.170;2023-04-19T12:10:21;17.20;59.40
46091;DHT22;31826;53.572;10.170;2023-04-19T12:12:47;17.10;59.10
46091;DHT22;31826;53.572;10.170;2023-04-19T12:15:13;17.30;58.70
46091;DHT22;31826;53.572;10.170;2023-04-19T12:18:00;17.50;58.80
46091;DHT22;31826;53.572;10.170;2023-04-19T12:20:34;17.60;60.10
46091;DHT22;31826;53.572;10.170;2023-04-19T12:23:00;17.50;58.20
46091;DHT22;31826;53.572;10.170;2023-04-19T12:25:31;17.20;58.10
46091;DHT22;31826;53.572;10.170;2023-04-19T12:27:58;17.20;60.10
46091;DHT22;31826;53.572;10.170;2023-04-19T12:30:24;16.90;58.20
46091;DHT22;31826;53.572;10.170;2023-04-19T12:32:51;16.70;59.40
46091;DHT22;31826;53.572;10.170;2023-04-19T12:35:29;17.00;61.30
46091;DHT22;31826;53.572;10.170;2023-04-19T12:37:57;17.40;61.30
46091;DHT22;31826;53.572;10.170;2023-04-19T12:40:24;17.70;60.00
46091;DHT22;31826;53.572;10.170;2023-04-19T12:42:50;17.50;60.50
46091;DHT22;31826;53.572;10.170;2023-04-19T12:45:17;17.60;61.20
46091;DHT22;31826;53.572;10.170;2023-04-19T12:47:44;17.40;60.20
46091;DHT22;31826;53.572;10.170;2023-04-19T12:50:12;17.30;61.50
46091;DHT22;31826;53.572;10.170;2023-04-19T12:52:39;17.30;63.00
46091;DHT22;31826;53.572;10.170;2023-04-19T12:55:06;17.40;60.10
46091;DHT22;31826;53.572;10.170;2023-04-19T12:57:32;16.70;56.30
46091;DHT22;31826;53.572;10.170;2023-04-19T12:59:57;16.50;58.80
46091;DHT22;31826;53.572;10.170;2023-04-19T13:02:23;16.10;55.90
46091;DHT22;31826;53.572;10.170;2023-04-19T13:04:49;16.20;58.60
46091;DHT22;31826;53.572;10.170;2023-04-19T13:07:15;16.40;57.80
46091;DHT22;31826;53.572;10.170;2023-04-19T13:09:41;16.30;56.70
46091;DHT22;31826;53.572;10.170;2023-04-19T13:12:07;16.40;58.60
46091;DHT22;31826;53.572;10.170;2023-04-19T13:14:33;16.30;57.10
46091;DHT22;31826;53.572;10.170;2023-04-19T13:16:59;16.30;57.80
46091;DHT22;31826;53.572;10.170;2023-04-19T13:19:25;16.50;58.50
46091;DHT22;31826;53.572;10.170;2023-04-19T13:21:51;16.70;56.90
46091;DHT22;31826;53.572;10.170;2023-04-19T13:24:17;16.80;58.00
46091;DHT22;31826;53.572;10.170;2023-04-19T13:26:42;17.10;58.60
46091;DHT22;31826;53.572;10.170;2023-04-19T13:29:10;17.00;57.50
46091;DHT22;31826;53.572;10.170;2023-04-19T13:31:36;16.70;56.90
46091;DHT22;31826;53.572;10.170;2023-04-19T13:34:02;16.60;58.40
46091;DHT22;31826;53.572;10.170;2023-04-19T13:36:28;16.80;57.30
46091;DHT22;31826;53.572;10.170;2023-04-19T13:38:54;16.20;54.90
46091;DHT22;31826;53.572;10.170;2023-04-19T13:41:20;15.90;54.30
46091;DHT22;31826;53.572;10.170;2023-04-19T13:43:46;15.80;55.90
46091;DHT22;31826;53.572;10.170;2023-04-19T13:46:12;15.40;55.10
46091;DHT22;31826;53.572;10.170;2023-04-19T13:48:38;15.00;55.40
46091;DHT22;31826;53.572;10.170;2023-04-19T13:51:05;14.70;58.10
46091;DHT22;31826;53.572;10.170;2023-04-19T13:53:31;14.40;57.60
46091;DHT22;31826;53.572;10.170;2023-04-19T13:55:56;14.50;57.80
46091;DHT22;31826;53.572;10.170;2023-04-19T13:58:22;14.70;57.50
46091;DHT22;31826;53.572;10.170;2023-04-19T14:00:51;14.50;58.40
46091;DHT22;31826;53.572;10.170;2023-04-19T14:03:18;14.50;58.50
46091;DHT22;31826;53.572;10.170;2023-04-19T14:05:43;14.10;57.40
46091;DHT22;31826;53.572;10.170;2023-04-19T14:08:09;14.00;58.20
46091;DHT22;31826;53.572;10.170;2023-04-19T14:10:35;14.10;58.40
46091;DHT22;31826;53.572;10.170;2023-04-19T14:13:01;14.00;58.60
46091;DHT22;31826;53.572;10.170;2023-04-19T14:15:27;14.00;59.80
46091;DHT22;31826;53.572;10.170;2023-04-19T14:17:53;14.20;60.50
46091;DHT22;31826;53.572;10.170;2023-04-19T14:20:19;14.50;61.20
46091;DHT22;31826;53.572;10.170;2023-04-19T14:22:45;14.40;59.30
46091;DHT22;31826;53.572;10.170;2023-04-19T14:25:11;14.70;61.50
46091;DHT22;31826;53.572;10.170;2023-04-19T14:27:40;14.70;59.70
46091;DHT22;31826;53.572;10.170;2023-04-19T14:30:06;14.50;58.30
46091;DHT22;31826;53.572;10.170;2023-04-19T14:32:33;14.40;59.10
46091;DHT22;31826;53.572;10.170;2023-04-19T14:34:58;14.40;59.10
46091;DHT22;31826;53.572;10.170;2023-04-19T14:37:24;14.60;58.40
46091;DHT22;31826;53.572;10.170;2023-04-19T14:39:50;14.70;59.40
46091;DHT22;31826;53.572;10.170;2023-04-19T14:42:16;14.90;59.00
46091;DHT22;31826;53.572;10.170;2023-04-19T14:44:42;14.90;59.50
46091;DHT22;31826;53.572;10.170;2023-04-19T14:47:09;15.00;58.90
46091;DHT22;31826;53.572;10.170;2023-04-19T14:49:35;14.70;58.50
46091;DHT22;31826;53.572;10.170;2023-04-19T14:52:01;14.50;57.60
46091;DHT22;31826;53.572;10.170;2023-04-19T14:54:28;14.20;56.70
46091;DHT22;31826;53.572;10.170;2023-04-19T14:56:54;13.80;55.50
46091;DHT22;31826;53.572;10.170;2023-04-19T14:59:20;13.50;55.70
46091;DHT22;31826;53.572;10.170;2023-04-19T15:01:46;13.50;57.50
46091;DHT22;31826;53.572;10.170;2023-04-19T15:04:11;13.50;57.90
46091;DHT22;31826;53.572;10.170;2023-04-19T15:06:37;13.40;57.90
46091;DHT22;31826;53.572;10.170;2023-04-19T15:09:03;13.60;58.70
46091;DHT22;31826;53.572;10.170;2023-04-19T15:11:29;13.60;59.40
46091;DHT22;31826;53.572;10.170;2023-04-19T15:13:55;13.50;57.80
46091;DHT22;31826;53.572;10.170;2023-04-19T15:16:21;13.50;57.80
46091;DHT22;31826;53.572;10.170;2023-04-19T15:18:46;13.50;58.90
46091;DHT22;31826;53.572;10.170;2023-04-19T15:21:12;13.30;57.20
46091;DHT22;31826;53.572;10.170;2023-04-19T15:23:38;13.10;57.20
46091;DHT22;31826;53.572;10.170;2023-04-19T15:26:04;12.90;58.00
46091;DHT22;31826;53.572;10.170;2023-04-19T15:28:32;12.90;57.80